sensor_id;sensor_type;location;lat;lon;timestamp;pressure;altitude;pressure_sealevel;temperature;humidity
72110;BME280;59983;52.010;5.420;2023-05-11T00:00:14;101485.34;;;13.58;100.00
72110;BME280;59983;52.010;5.420;2023-05-11T00:02:41;101481.03;;;13.57;100.00
72110;BME280;59983;52.010;5.420;2023-05-11T00:05:09;101475.16;;;13.55;100.00
72110;BME280;59983;52.010;5.420;2023-05-11T00:07:36;101479.44;;;13.56;100.00
72110;BME280;59983;52.010;5.420;2023-05-11T00:10:02;101471.28;;;13.56;100.00
72110;BME280;59983;52.010;5.420;2023-05-11T00:12:29;101475.06;;;13.52;100.00
72110;BME280;59983;52.010;5.420;2023-05-11T00:14:55;101467.22;;;13.50;100.00
72110;BME280;59983;52.010;5.420;2023-05-11T00:17:21;101468.91;;;13.55;100.00
72110;BME280;59983;52.010;5.420;2023-05-11T00:19:48;101460.44;;;13.60;100.00
72110;BME280;59983;52.010;5.420;2023-05-11T00:22:15;101453.09;;;13.60;100.00
72110;BME280;59983;52.010;5.420;2023-05-11T00:24:41;101469.19;;;13.66;100.00
72110;BME280;59983;52.010;5.420;2023-05-11T00:27:08;101462.06;;;13.61;100.00
72110;BME280;59983;52.010;5.420;2023-05-11T00:29:34;101466.72;;;13.60;100.00
72110;BME280;59983;52.010;5.420;2023-05-11T00:32:01;101460.44;;;13.60;100.00
72110;BME280;59983;52.010;5.420;2023-05-11T00:34:27;101468.63;;;13.60;100.00
72110;BME280;59983;52.010;5.420;2023-05-11T00:36:54;101460.44;;;13.60;100.00
72110;BME280;59983;52.010;5.420;2023-05-11T00:39:21;101459.22;;;13.57;100.00
72110;BME280;59983;52.010;5.420;2023-05-11T00:47:08;101454.84;;;13.53;100.00
72110;BME280;59983;52.010;5.420;2023-05-11T00:49:34;101454.28;;;13.47;100.00
72110;BME280;59983;52.010;5.420;2023-05-11T00:52:01;101465.34;;;13.39;100.00
72110;BME280;59983;52.010;5.420;2023-05-11T00:54:29;101468.78;;;13.36;100.00
72110;BME280;59983;52.010;5.420;2023-05-11T00:56:56;101472.53;;;13.31;100.00
72110;BME280;59983;52.010;5.420;2023-05-11T00:59:22;101464.00;;;13.32;100.00
72110;BME280;59983;52.010;5.420;2023-05-11T01:01:49;101470.16;;;13.29;100.00
72110;BME280;59983;52.010;5.420;2023-05-11T01:04:16;101467.69;;;13.24;100.00
72110;BME280;59983;52.010;5.420;2023-05-11T01:07:22;101471.19;;;13.25;100.00
72110;BME280;59983;52.010;5.420;2023-05-11T01:12:32;101474.38;;;13.27;100.00
72110;BME280;59983;52.010;5.420;2023-05-11T01:15:13;101469.38;;;13.29;100.00
72110;BME280;59983;52.010;5.420;2023-05-11T01:18:10;101469.16;;;13.22;100.00
72110;BME280;59983;52.010;5.420;2023-05-11T01:20:43;101480.06;;;13.22;100.00
72110;BME280;59983;52.010;5.420;2023-05-11T01:32:32;101471.56;;;13.11;100.00
72110;BME280;59983;52.010;5.420;2023-05-11T01:35:05;101482.38;;;13.08;100.00
72110;BME280;59983;52.010;5.420;2023-05-11T01:37:33;101478.84;;;13.07;100.00
72110;BME280;59983;52.010;5.420;2023-05-11T01:40:04;101478.75;;;13.03;100.00
72110;BME280;59983;52.010;5.420;2023-05-11T01:42:40;101482.63;;;13.02;100.00
72110;BME280;59983;52.010;5.420;2023-05-11T01:45:09;101485.34;;;13.02;100.00
72110;BME280;59983;52.010;5.420;2023-05-11T01:47:37;101481.47;;;13.03;100.00
72110;BME280;59983;52.010;5.420;2023-05-11T01:50:07;101475.59;;;13.01;100.00
72110;BME280;59983;52.010;5.420;2023-05-11T01:52:35;101478.97;;;12.98;100.00
72110;BME280;59983;52.010;5.420;2023-05-11T01:55:03;101475.59;;;13.01;100.00
72110;BME280;59983;52.010;5.420;2023-05-11T01:57:31;101483.63;;;12.98;100.00
72110;BME280;59983;52.010;5.420;2023-05-11T01:59:59;101487.16;;;12.98;100.00
72110;BME280;59983;52.010;5.420;2023-05-11T02:02:28;101488.41;;;13.01;100.00
72110;BME280;59983;52.010;5.420;2023-05-11T02:04:56;101484.09;;;13.00;100.00
72110;BME280;59983;52.010;5.420;2023-05-11T02:07:24;101495.88;;;13.04;100.00
72110;BME280;59983;52.010;5.420;2023-05-11T02:09:53;101495.88;;;13.04;100.00
72110;BME280;59983;52.010;5.420;2023-05-11T02:12:21;101501.44;;;13.08;100.00
72110;BME280;59983;52.010;5.420;2023-05-11T02:14:50;101495.19;;;13.07;100.00
72110;BME280;59983;52.010;5.420;2023-05-11T02:17:20;101492.47;;;13.07;100.00
72110;BME280;59983;52.010;5.420;2023-05-11T02:19:48;101496.94;;;12.99;100.00
72110;BME280;59983;52.010;5.420;2023-05-11T02:22:16;101490.34;;;13.00;100.00
72110;BME280;59983;52.010;5.420;2023-05-11T02:24:46;101491.66;;;13.07;100.00
72110;BME280;59983;52.010;5.420;2023-05-11T02:27:14;101493.16;;;13.04;100.00
72110;BME280;59983;52.010;5.420;2023-05-11T02:29:40;101489.19;;;13.01;100.00
72110;BME280;59983;52.010;5.420;2023-05-11T02:32:10;101492.59;;;12.98;100.00
72110;BME280;59983;52.010;5.420;2023-05-11T02:34:43;101491.72;;;12.94;100.00
72110;BME280;59983;52.010;5.420;2023-05-11T02:37:18;101491.84;;;12.86;100.00
72110;BME280;59983;52.010;5.420;2023-05-11T02:39:53;101484.59;;;12.77;100.00
72110;BME280;59983;52.010;5.420;2023-05-11T02:42:23;101482.88;;;12.85;100.00
72110;BME280;59983;52.010;5.420;2023-05-11T02:45:01;101492.50;;;12.95;100.00
72110;BME280;59983;52.010;5.420;2023-05-11T02:47:35;101491.28;;;12.92;100.00
72110;BME280;59983;52.010;5.420;2023-05-11T02:50:05;101502.84;;;12.89;100.00
72110;BME280;59983;52.010;5.420;2023-05-11T02:52:35;101504.75;;;12.89;100.00
72110;BME280;59983;52.010;5.420;2023-05-11T02:55:05;101500.59;;;12.91;100.00
72110;BME280;59983;52.010;5.420;2023-05-11T02:57:32;101490.47;;;12.92;100.00
72110;BME280;59983;52.010;5.420;2023-05-11T02:59:59;101488.91;;;12.91;100.00
72110;BME280;59983;52.010;5.420;2023-05-11T03:02:26;101488.56;;;12.92;100.00
72110;BME280;59983;52.010;5.420;2023-05-11T03:04:53;101487.75;;;12.92;100.00
72110;BME280;59983;52.010;5.420;2023-05-11T03:07:20;101479.94;;;12.90;100.00
72110;BME280;59983;52.010;5.420;2023-05-11T03:09:46;101482.19;;;12.88;100.00
72110;BME280;59983;52.010;5.420;2023-05-11T03:12:13;101488.56;;;12.92;100.00
72110;BME280;59983;52.010;5.420;2023-05-11T03:14:40;101490.72;;;12.87;100.00
72110;BME280;59983;52.010;5.420;2023-05-11T03:17:08;101482.78;;;12.82;100.00
72110;BME280;59983;52.010;5.420;2023-05-11T03:19:35;101486.09;;;12.75;100.00
72110;BME280;59983;52.010;5.420;2023-05-11T03:22:04;101481.56;;;12.67;100.00
72110;BME280;59983;52.010;5.420;2023-05-11T03:24:31;101486.91;;;12.63;100.00
72110;BME280;59983;52.010;5.420;2023-05-11T03:26:59;101482.25;;;12.64;100.00
72110;BME280;59983;52.010;5.420;2023-05-11T03:29:27;101483.84;;;12.65;100.00
72110;BME280;59983;52.010;5.420;2023-05-11T03:31:54;101479.84;;;12.62;100.00
72110;BME280;59983;52.010;5.420;2023-05-11T03:34:21;101486.56;;;12.53;100.00
72110;BME280;59983;52.010;5.420;2023-05-11T03:36:49;101481.47;;;12.51;100.00
72110;BME280;59983;52.010;5.420;2023-05-11T03:39:16;101473.31;;;12.51;100.00
72110;BME280;59983;52.010;5.420;2023-05-11T03:41:44;101482.25;;;12.52;100.00
72110;BME280;59983;52.010;5.420;2023-05-11T03:44:16;101484.63;;;12.53;100.00
72110;BME280;59983;52.010;5.420;2023-05-11T03:46:46;101470.59;;;12.51;100.00
72110;BME280;59983;52.010;5.420;2023-05-11T03:49:14;101481.81;;;12.50;100.00
72110;BME280;59983;52.010;5.420;2023-05-11T03:51:42;101479.78;;;12.46;100.00
72110;BME280;59983;52.010;5.420;2023-05-11T03:54:09;101477.38;;;12.45;100.00
72110;BME280;59983;52.010;5.420;2023-05-11T03:56:37;101481.03;;;12.49;100.00
72110;BME280;59983;52.010;5.420;2023-05-11T03:59:03;101480.69;;;12.51;100.00
72110;BME280;59983;52.010;5.420;2023-05-11T04:01:30;101478.31;;;12.49;100.00
72110;BME280;59983;52.010;5.420;2023-05-11T04:03:57;101482.97;;;12.48;100.00
72110;BME280;59983;52.010;5.420;2023-05-11T04:06:24;101483.31;;;12.47;100.00
72110;BME280;59983;52.010;5.420;2023-05-11T04:08:51;101489.75;;;12.42;100.00
72110;BME280;59983;52.010;5.420;2023-05-11T04:11:17;101481.72;;;12.46;100.00
72110;BME280;59983;52.010;5.420;2023-05-11T04:13:44;101496.00;;;12.43;100.00
72110;BME280;59983;52.010;5.420;2023-05-11T04:16:10;101481.94;;;12.41;100.00
72110;BME280;59983;52.010;5.420;2023-05-11T04:18:37;101482.50;;;12.46;100.00
72110;BME280;59983;52.010;5.420;2023-05-11T04:21:03;101485.34;;;12.50;100.00
72110;BME280;59983;52.010;5.420;2023-05-11T04:23:31;101491.13;;;12.48;100.00
72110;BME280;59983;52.010;5.420;2023-05-11T04:25:58;101497.34;;;12.49;100.00
72110;BME280;59983;52.010;5.420;2023-05-11T04:28:24;101494.72;;;12.53;100.00
72110;BME280;59983;52.010;5.420;2023-05-11T04:30:54;101500.88;;;12.50;100.00
72110;BME280;59983;52.010;5.420;2023-05-11T04:33:21;101492.59;;;12.46;100.00
72110;BME280;59983;52.010;5.420;2023-05-11T04:35:51;101496.31;;;12.54;100.00
72110;BME280;59983;52.010;5.420;2023-05-11T04:38:20;101498.47;;;12.60;100.00
72110;BME280;59983;52.010;5.420;2023-05-11T04:40:47;101499.16;;;12.57;100.00
72110;BME280;59983;52.010;5.420;2023-05-11T04:43:16;101496.66;;;12.52;100.00
72110;BME280;59983;52.010;5.420;2023-05-11T04:45:47;101507.78;;;12.47;100.00
72110;BME280;59983;52.010;5.420;2023-05-11T04:48:14;101506.06;;;12.42;100.00
72110;BME280;59983;52.010;5.420;2023-05-11T04:50:43;101504.59;;;12.45;100.00
72110;BME280;59983;52.010;5.420;2023-05-11T04:53:09;101517.53;;;12.48;100.00
72110;BME280;59983;52.010;5.420;2023-05-11T04:55:36;101511.31;;;12.47;100.00
72110;BME280;59983;52.010;5.420;2023-05-11T04:58:02;101505.06;;;12.47;100.00
72110;BME280;59983;52.010;5.420;2023-05-11T05:00:29;101513.34;;;12.51;100.00
72110;BME280;59983;52.010;5.420;2023-05-11T05:02:55;101516.16;;;12.54;100.00
72110;BME280;59983;52.010;5.420;2023-05-11T05:05:22;101512.41;;;12.59;100.00
72110;BME280;59983;52.010;5.420;2023-05-11T05:07:49;101510.72;;;12.66;100.00
72110;BME280;59983;52.010;5.420;2023-05-11T05:10:15;101520.47;;;12.67;100.00
72110;BME280;59983;52.010;5.420;2023-05-11T05:12:42;101513.53;;;12.70;100.00
72110;BME280;59983;52.010;5.420;2023-05-11T05:15:09;101520.56;;;12.71;100.00
72110;BME280;59983;52.010;5.420;2023-05-11T05:17:36;101532.16;;;12.68;100.00
72110;BME280;59983;52.010;5.420;2023-05-11T05:20:04;101536.00;;;12.67;100.00
72110;BME280;59983;52.010;5.420;2023-05-11T05:22:30;101527.50;;;12.68;100.00
72110;BME280;59983;52.010;5.420;2023-05-11T05:24:57;101535.66;;;12.68;100.00
72110;BME280;59983;52.010;5.420;2023-05-11T05:27:24;101527.41;;;12.65;100.00
72110;BME280;59983;52.010;5.420;2023-05-11T05:29:50;101538.28;;;12.65;100.00
72110;BME280;59983;52.010;5.420;2023-05-11T05:32:17;101532.72;;;12.61;100.00
72110;BME280;59983;52.010;5.420;2023-05-11T05:34:44;101532.50;;;12.66;100.00
72110;BME280;59983;52.010;5.420;2023-05-11T05:37:12;101533.25;;;12.79;100.00
72110;BME280;59983;52.010;5.420;2023-05-11T05:39:38;101534.50;;;12.94;100.00
72110;BME280;59983;52.010;5.420;2023-05-11T05:42:05;101537.31;;;12.97;100.00
72110;BME280;59983;52.010;5.420;2023-05-11T05:44:33;101540.25;;;13.04;100.00
72110;BME280;59983;52.010;5.420;2023-05-11T05:47:00;101542.75;;;13.10;100.00
72110;BME280;59983;52.010;5.420;2023-05-11T05:49:26;101534.91;;;13.20;100.00
72110;BME280;59983;52.010;5.420;2023-05-11T05:51:53;101537.72;;;13.24;100.00
72110;BME280;59983;52.010;5.420;2023-05-11T05:54:19;101546.38;;;13.26;100.00
72110;BME280;59983;52.010;5.420;2023-05-11T05:56:46;101549.53;;;13.28;100.00
72110;BME280;59983;52.010;5.420;2023-05-11T05:59:13;101550.75;;;13.30;100.00
72110;BME280;59983;52.010;5.420;2023-05-11T06:01:40;101554.72;;;13.33;100.00
72110;BME280;59983;52.010;5.420;2023-05-11T06:04:12;101557.06;;;13.47;100.00
72110;BME280;59983;52.010;5.420;2023-05-11T06:06:38;101561.44;;;13.64;100.00
72110;BME280;59983;52.010;5.420;2023-05-11T06:09:05;101555.13;;;13.75;100.00
72110;BME280;59983;52.010;5.420;2023-05-11T06:11:32;101560.16;;;13.89;100.00
72110;BME280;59983;52.010;5.420;2023-05-11T06:13:58;101559.13;;;14.09;100.00
72110;BME280;59983;52.010;5.420;2023-05-11T06:16:25;101556.41;;;14.25;100.00
72110;BME280;59983;52.010;5.420;2023-05-11T06:18:53;101564.44;;;14.34;100.00
72110;BME280;59983;52.010;5.420;2023-05-11T06:21:19;101561.88;;;14.41;100.00
72110;BME280;59983;52.010;5.420;2023-05-11T06:23:46;101569.44;;;14.48;100.00
72110;BME280;59983;52.010;5.420;2023-05-11T06:26:12;101562.66;;;14.57;100.00
72110;BME280;59983;52.010;5.420;2023-05-11T06:28:39;101564.34;;;14.62;100.00
72110;BME280;59983;52.010;5.420;2023-05-11T06:31:06;101564.69;;;14.60;100.00
72110;BME280;59983;52.010;5.420;2023-05-11T06:33:33;101566.47;;;14.53;100.00
72110;BME280;59983;52.010;5.420;2023-05-11T06:36:03;101573.34;;;14.47;100.00
72110;BME280;59983;52.010;5.420;2023-05-11T06:38:30;101568.44;;;14.40;100.00
72110;BME280;59983;52.010;5.420;2023-05-11T06:40:57;101569.78;;;14.30;100.00
72110;BME280;59983;52.010;5.420;2023-05-11T06:43:23;101573.22;;;14.27;100.00
72110;BME280;59983;52.010;5.420;2023-05-11T06:45:50;101578.94;;;14.22;100.00
72110;BME280;59983;52.010;5.420;2023-05-11T06:48:16;101577.81;;;14.23;100.00
72110;BME280;59983;52.010;5.420;2023-05-11T06:50:43;101580.53;;;14.23;100.00
72110;BME280;59983;52.010;5.420;2023-05-11T06:53:10;101574.53;;;14.17;100.00
72110;BME280;59983;52.010;5.420;2023-05-11T06:55:36;101577.63;;;14.16;100.00
72110;BME280;59983;52.010;5.420;2023-05-11T06:58:03;101587.75;;;14.15;100.00
72110;BME280;59983;52.010;5.420;2023-05-11T07:00:29;101590.13;;;14.17;100.00
72110;BME280;59983;52.010;5.420;2023-05-11T07:02:56;101584.66;;;14.17;100.00
72110;BME280;59983;52.010;5.420;2023-05-11T07:05:22;101576.91;;;14.19;100.00
72110;BME280;59983;52.010;5.420;2023-05-11T07:07:50;101582.97;;;14.12;100.00
72110;BME280;59983;52.010;5.420;2023-05-11T07:10:17;101583.06;;;14.16;100.00
72110;BME280;59983;52.010;5.420;2023-05-11T07:12:44;101584.91;;;14.12;100.00
72110;BME280;59983;52.010;5.420;2023-05-11T07:15:10;101584.47;;;14.10;100.00
72110;BME280;59983;52.010;5.420;2023-05-11T07:17:37;101584.91;;;14.12;100.00
72110;BME280;59983;52.010;5.420;2023-05-11T07:20:04;101592.31;;;14.11;100.00
72110;BME280;59983;52.010;5.420;2023-05-11T07:22:31;101583.25;;;14.07;100.00
72110;BME280;59983;52.010;5.420;2023-05-11T07:24:59;101593.09;;;14.12;100.00
72110;BME280;59983;52.010;5.420;2023-05-11T07:27:25;101583.88;;;14.16;100.00
72110;BME280;59983;52.010;5.420;2023-05-11T07:29:52;101580.78;;;14.18;100.00
72110;BME280;59983;52.010;5.420;2023-05-11T07:32:19;101586.88;;;14.27;100.00
72110;BME280;59983;52.010;5.420;2023-05-11T07:34:45;101582.75;;;14.33;100.00
72110;BME280;59983;52.010;5.420;2023-05-11T07:37:12;101586.88;;;14.43;100.00
72110;BME280;59983;52.010;5.420;2023-05-11T07:39:38;101586.28;;;14.50;100.00
72110;BME280;59983;52.010;5.420;2023-05-11T07:42:05;101589.16;;;14.57;100.00
72110;BME280;59983;52.010;5.420;2023-05-11T07:44:32;101582.38;;;14.66;100.00
72110;BME280;59983;52.010;5.420;2023-05-11T07:46:58;101586.34;;;14.69;100.00
72110;BME280;59983;52.010;5.420;2023-05-11T07:49:25;101577.38;;;14.68;100.00
72110;BME280;59983;52.010;5.420;2023-05-11T07:52:08;101586.00;;;14.70;100.00
72110;BME280;59983;52.010;5.420;2023-05-11T07:54:34;101577.38;;;14.68;100.00
72110;BME280;59983;52.010;5.420;2023-05-11T07:57:01;101587.31;;;14.77;100.00
72110;BME280;59983;52.010;5.420;2023-05-11T07:59:29;101592.94;;;14.84;100.00
72110;BME280;59983;52.010;5.420;2023-05-11T08:01:56;101590.28;;;14.87;100.00
72110;BME280;59983;52.010;5.420;2023-05-11T08:04:25;101592.59;;;14.85;100.00
72110;BME280;59983;52.010;5.420;2023-05-11T08:06:52;101594.97;;;14.87;100.00
72110;BME280;59983;52.010;5.420;2023-05-11T08:09:18;101598.50;;;14.87;100.00
72110;BME280;59983;52.010;5.420;2023-05-11T08:11:45;101595.94;;;14.94;100.00
72110;BME280;59983;52.010;5.420;2023-05-11T08:14:11;101590.88;;;14.96;100.00
72110;BME280;59983;52.010;5.420;2023-05-11T08:16:38;101604.41;;;15.09;100.00
72110;BME280;59983;52.010;5.420;2023-05-11T08:19:05;101607.31;;;15.16;100.00
72110;BME280;59983;52.010;5.420;2023-05-11T08:21:31;101602.75;;;15.20;100.00
72110;BME280;59983;52.010;5.420;2023-05-11T08:23:58;101596.53;;;15.23;100.00
72110;BME280;59983;52.010;5.420;2023-05-11T08:26:24;101598.91;;;15.24;100.00
72110;BME280;59983;52.010;5.420;2023-05-11T08:28:51;101598.97;;;15.28;100.00
72110;BME280;59983;52.010;5.420;2023-05-11T08:31:18;101601.88;;;15.35;100.00
72110;BME280;59983;52.010;5.420;2023-05-11T08:33:44;101603.03;;;15.53;100.00
72110;BME280;59983;52.010;5.420;2023-05-11T08:36:11;101603.22;;;15.61;100.00
72110;BME280;59983;52.010;5.420;2023-05-11T08:38:40;101594.06;;;15.72;100.00
72110;BME280;59983;52.010;5.420;2023-05-11T08:41:10;101593.78;;;15.77;100.00
72110;BME280;59983;52.010;5.420;2023-05-11T08:43:38;101594.59;;;16.01;100.00
72110;BME280;59983;52.010;5.420;2023-05-11T08:46:06;101588.47;;;16.30;100.00
72110;BME280;59983;52.010;5.420;2023-05-11T08:48:34;101587.47;;;16.42;98.96
72110;BME280;59983;52.010;5.420;2023-05-11T08:51:01;101596.56;;;16.46;99.15
72110;BME280;59983;52.010;5.420;2023-05-11T08:53:29;101592.06;;;16.34;97.32
72110;BME280;59983;52.010;5.420;2023-05-11T08:55:57;101586.34;;;16.20;98.61
72110;BME280;59983;52.010;5.420;2023-05-11T08:58:26;101589.50;;;16.22;97.16
72110;BME280;59983;52.010;5.420;2023-05-11T09:00:53;101582.03;;;16.19;96.74
72110;BME280;59983;52.010;5.420;2023-05-11T09:03:20;101584.34;;;16.17;96.47
72110;BME280;59983;52.010;5.420;2023-05-11T09:05:48;101589.13;;;16.24;98.14
72110;BME280;59983;52.010;5.420;2023-05-11T09:08:17;101588.66;;;16.18;96.51
72110;BME280;59983;52.010;5.420;2023-05-11T09:10:44;101600.41;;;16.19;96.92
72110;BME280;59983;52.010;5.420;2023-05-11T09:13:10;101592.06;;;16.11;93.58
72110;BME280;59983;52.010;5.420;2023-05-11T09:15:37;101591.50;;;16.02;95.53
72110;BME280;59983;52.010;5.420;2023-05-11T09:18:04;101589.50;;;15.99;96.84
72110;BME280;59983;52.010;5.420;2023-05-11T09:20:32;101594.25;;;16.02;97.19
72110;BME280;59983;52.010;5.420;2023-05-11T09:22:59;101595.81;;;16.03;96.21
72110;BME280;59983;52.010;5.420;2023-05-11T09:25:28;101590.78;;;16.05;96.75
72110;BME280;59983;52.010;5.420;2023-05-11T09:27:58;101593.50;;;16.05;94.88
72110;BME280;59983;52.010;5.420;2023-05-11T09:30:25;101598.97;;;16.05;95.25
72110;BME280;59983;52.010;5.420;2023-05-11T09:32:56;101598.03;;;16.17;95.18
72110;BME280;59983;52.010;5.420;2023-05-11T09:40:35;101593.53;;;16.28;94.86
72110;BME280;59983;52.010;5.420;2023-05-11T09:43:14;101591.13;;;16.50;93.42
72110;BME280;59983;52.010;5.420;2023-05-11T09:45:43;101600.25;;;16.57;92.88
72110;BME280;59983;52.010;5.420;2023-05-11T09:50:47;101590.09;;;16.81;90.26
72110;BME280;59983;52.010;5.420;2023-05-11T09:53:14;101598.31;;;16.81;90.74
72110;BME280;59983;52.010;5.420;2023-05-11T09:55:53;101589.69;;;17.09;92.21
72110;BME280;59983;52.010;5.420;2023-05-11T09:58:20;101600.34;;;17.44;91.57
72110;BME280;59983;52.010;5.420;2023-05-11T10:00:52;101596.47;;;17.48;86.81
72110;BME280;59983;52.010;5.420;2023-05-11T10:03:19;101585.28;;;17.61;87.18
72110;BME280;59983;52.010;5.420;2023-05-11T10:05:57;101581.75;;;17.94;87.49
72110;BME280;59983;52.010;5.420;2023-05-11T10:08:31;101583.66;;;17.90;84.25
72110;BME280;59983;52.010;5.420;2023-05-11T10:11:01;101585.53;;;17.82;85.72
72110;BME280;59983;52.010;5.420;2023-05-11T10:13:28;101589.91;;;17.56;82.61
72110;BME280;59983;52.010;5.420;2023-05-11T10:15:56;101581.91;;;17.41;83.64
72110;BME280;59983;52.010;5.420;2023-05-11T10:18:24;101589.25;;;17.33;83.94
72110;BME280;59983;52.010;5.420;2023-05-11T10:20:52;101579.56;;;17.43;86.14
72110;BME280;59983;52.010;5.420;2023-05-11T10:23:19;101583.88;;;17.44;84.86
72110;BME280;59983;52.010;5.420;2023-05-11T10:25:46;101581.41;;;17.32;86.30
72110;BME280;59983;52.010;5.420;2023-05-11T10:28:13;101572.44;;;17.38;84.94
72110;BME280;59983;52.010;5.420;2023-05-11T10:30:41;101577.25;;;17.45;85.45
72110;BME280;59983;52.010;5.420;2023-05-11T10:33:09;101582.03;;;17.51;86.25
72110;BME280;59983;52.010;5.420;2023-05-11T10:35:37;101578.44;;;17.47;84.65
72110;BME280;59983;52.010;5.420;2023-05-11T10:38:05;101572.81;;;17.37;84.77
72110;BME280;59983;52.010;5.420;2023-05-11T10:40:35;101569.31;;;17.40;83.03
72110;BME280;59983;52.010;5.420;2023-05-11T10:43:22;101571.88;;;17.55;86.24
72110;BME280;59983;52.010;5.420;2023-05-11T10:46:09;101567.00;;;17.72;84.33
72110;BME280;59983;52.010;5.420;2023-05-11T10:52:00;101560.66;;;17.68;82.92
72110;BME280;59983;52.010;5.420;2023-05-11T11:03:13;101565.81;;;17.73;84.06
72110;BME280;59983;52.010;5.420;2023-05-11T11:05:41;101566.22;;;17.75;81.33
72110;BME280;59983;52.010;5.420;2023-05-11T11:08:09;101569.34;;;17.73;84.48
72110;BME280;59983;52.010;5.420;2023-05-11T11:10:38;101562.28;;;17.72;82.64
72110;BME280;59983;52.010;5.420;2023-05-11T11:13:07;101562.78;;;17.81;83.85
72110;BME280;59983;52.010;5.420;2023-05-11T11:18:29;101568.66;;;17.80;82.70
72110;BME280;59983;52.010;5.420;2023-05-11T11:20:57;101571.72;;;17.75;82.72
72110;BME280;59983;52.010;5.420;2023-05-11T11:26:10;101567.94;;;17.53;82.57
72110;BME280;59983;52.010;5.420;2023-05-11T11:31:34;101568.53;;;17.39;86.71
72110;BME280;59983;52.010;5.420;2023-05-11T11:39:27;101582.06;;;16.68;90.16
72110;BME280;59983;52.010;5.420;2023-05-11T11:42:06;101586.97;;;16.59;91.66
72110;BME280;59983;52.010;5.420;2023-05-11T11:44:34;101593.41;;;16.44;92.82
72110;BME280;59983;52.010;5.420;2023-05-11T11:49:39;101594.31;;;16.29;95.55
72110;BME280;59983;52.010;5.420;2023-05-11T11:52:11;101588.75;;;16.25;96.66
72110;BME280;59983;52.010;5.420;2023-05-11T11:54:43;101594.06;;;16.14;97.54
72110;BME280;59983;52.010;5.420;2023-05-11T11:59:55;101597.94;;;15.71;100.00
72110;BME280;59983;52.010;5.420;2023-05-11T12:02:22;101597.72;;;15.80;100.00
72110;BME280;59983;52.010;5.420;2023-05-11T12:04:51;101605.50;;;15.78;100.00
72110;BME280;59983;52.010;5.420;2023-05-11T12:07:23;101600.09;;;15.62;100.00
72110;BME280;59983;52.010;5.420;2023-05-11T12:09:50;101595.91;;;15.49;100.00
72110;BME280;59983;52.010;5.420;2023-05-11T12:12:19;101605.50;;;15.39;100.00
72110;BME280;59983;52.010;5.420;2023-05-11T12:14:46;101618.63;;;15.34;100.00
72110;BME280;59983;52.010;5.420;2023-05-11T12:17:24;101612.84;;;15.19;100.00
72110;BME280;59983;52.010;5.420;2023-05-11T12:19:51;101619.03;;;15.16;100.00
72110;BME280;59983;52.010;5.420;2023-05-11T12:22:22;101619.59;;;15.06;100.00
72110;BME280;59983;52.010;5.420;2023-05-11T12:24:49;101619.59;;;15.06;100.00
72110;BME280;59983;52.010;5.420;2023-05-11T12:27:16;101620.06;;;14.92;100.00
72110;BME280;59983;52.010;5.420;2023-05-11T12:29:49;101619.03;;;14.81;100.00
72110;BME280;59983;52.010;5.420;2023-05-11T12:32:27;101620.78;;;14.89;100.00
72110;BME280;59983;52.010;5.420;2023-05-11T12:34:58;101621.66;;;14.93;100.00
72110;BME280;59983;52.010;5.420;2023-05-11T12:37:26;101611.53;;;14.94;100.00
72110;BME280;59983;52.010;5.420;2023-05-11T12:39:54;101620.59;;;14.82;100.00
72110;BME280;59983;52.010;5.420;2023-05-11T12:42:21;101621.69;;;14.78;100.00
72110;BME280;59983;52.010;5.420;2023-05-11T12:44:48;101618.84;;;14.74;100.00
72110;BME280;59983;52.010;5.420;2023-05-11T12:47:15;101624.06;;;14.63;100.00
72110;BME280;59983;52.010;5.420;2023-05-11T12:49:42;101619.81;;;14.66;100.00
72110;BME280;59983;52.010;5.420;2023-05-11T12:52:09;101618.59;;;14.63;100.00
72110;BME280;59983;52.010;5.420;2023-05-11T12:54:39;101621.06;;;14.53;100.00
72110;BME280;59983;52.010;5.420;2023-05-11T12:57:07;101619.75;;;14.47;100.00
72110;BME280;59983;52.010;5.420;2023-05-11T12:59:35;101619.88;;;14.38;100.00
72110;BME280;59983;52.010;5.420;2023-05-11T13:02:06;101627.03;;;14.42;100.00
72110;BME280;59983;52.010;5.420;2023-05-11T13:04:33;101627.25;;;14.50;100.00
72110;BME280;59983;52.010;5.420;2023-05-11T13:06:59;101628.28;;;14.45;100.00
72110;BME280;59983;52.010;5.420;2023-05-11T13:09:26;101630.28;;;14.32;100.00
72110;BME280;59983;52.010;5.420;2023-05-11T13:14:39;101622.88;;;14.33;100.00
72110;BME280;59983;52.010;5.420;2023-05-11T13:17:05;101620.03;;;14.29;100.00
72110;BME280;59983;52.010;5.420;2023-05-11T13:19:32;101625.63;;;14.33;100.00
72110;BME280;59983;52.010;5.420;2023-05-11T13:21:59;101615.84;;;14.32;100.00
72110;BME280;59983;52.010;5.420;2023-05-11T13:24:26;101611.25;;;14.36;100.00
72110;BME280;59983;52.010;5.420;2023-05-11T13:26:53;101610.28;;;14.44;100.00
72110;BME280;59983;52.010;5.420;2023-05-11T13:29:21;101615.44;;;14.45;100.00
72110;BME280;59983;52.010;5.420;2023-05-11T13:31:49;101613.38;;;14.42;100.00
72110;BME280;59983;52.010;5.420;2023-05-11T13:34:17;101614.63;;;14.45;100.00
72110;BME280;59983;52.010;5.420;2023-05-11T13:36:43;101604.94;;;14.48;100.00
72110;BME280;59983;52.010;5.420;2023-05-11T13:39:10;101607.78;;;14.51;100.00
72110;BME280;59983;52.010;5.420;2023-05-11T13:41:37;101605.13;;;14.55;100.00
72110;BME280;59983;52.010;5.420;2023-05-11T13:44:04;101606.19;;;14.50;100.00
72110;BME280;59983;52.010;5.420;2023-05-11T13:46:30;101609.44;;;14.56;100.00